Time;durP1;ratioP1;P1;durP2;ratioP2;P2;SDS_P1;SDS_P2;PMS_P1;PMS_P2;Temp;Humidity;BMP_temperature;BMP_pressure;BME280_temperature;BME280_humidity;BME280_pressure;Samples;Min_cycle;Max_cycle;Signal;HPM_P1;HPM_P2
2021/03/10 00:02:18;;;;;;;24.38;14.60;;;5.50;99.90;;;;;;5019617;28;20671;-83
2021/03/10 00:04:44;;;;;;;20.95;12.30;;;5.50;99.90;;;;;;5019445;28;20290;-84
2021/03/10 00:07:10;;;;;;;22.58;13.70;;;5.60;99.90;;;;;;5018678;28;20210;-84
2021/03/10 00:09:37;;;;;;;21.60;13.05;;;5.60;99.90;;;;;;5019912;28;20294;-84
2021/03/10 00:12:04;;;;;;;25.85;14.50;;;5.60;99.90;;;;;;5021287;28;20365;-84
2021/03/10 00:14:31;;;;;;;29.13;15.60;;;5.60;99.90;;;;;;5019687;28;20290;-84
2021/03/10 00:16:57;;;;;;;23.52;13.55;;;5.60;99.90;;;;;;5033704;28;20223;-84
2021/03/10 00:19:24;;;;;;;25.00;13.82;;;5.60;99.90;;;;;;5042761;28;20191;-84
2021/03/10 00:21:51;;;;;;;25.70;14.95;;;5.60;99.90;;;;;;5044094;28;20230;-84
2021/03/10 00:24:17;;;;;;;24.42;15.43;;;5.60;99.90;;;;;;5035294;28;20215;-84
2021/03/10 00:26:44;;;;;;;23.25;14.65;;;5.60;99.90;;;;;;5021618;28;20686;-84
2021/03/10 00:29:10;;;;;;;21.90;14.05;;;5.50;99.90;;;;;;5020763;28;20258;-84
2021/03/10 00:31:37;;;;;;;20.30;14.38;;;5.60;99.90;;;;;;5016594;28;20258;-83
2021/03/10 00:34:03;;;;;;;24.88;13.77;;;5.60;99.90;;;;;;5000079;28;20747;-83
2021/03/10 00:36:30;;;;;;;24.77;14.23;;;5.70;99.90;;;;;;4987346;28;20282;-84
2021/03/10 00:38:57;;;;;;;24.98;13.20;;;5.70;99.90;;;;;;5021839;28;20223;-84
2021/03/10 00:41:23;;;;;;;28.88;15.00;;;5.60;99.90;;;;;;5013392;28;20227;-84
2021/03/10 00:43:54;;;;;;;25.88;16.17;;;5.60;99.90;;;;;;5002140;28;20319;-85
2021/03/10 00:46:21;;;;;;;24.58;14.43;;;5.80;99.90;;;;;;5021729;28;20235;-85
2021/03/10 00:48:47;;;;;;;24.88;14.43;;;5.80;99.90;;;;;;5037918;28;20210;-83
2021/03/10 00:51:13;;;;;;;21.50;13.95;;;5.70;99.90;;;;;;5032646;28;20239;-84
2021/03/10 00:53:42;;;;;;;20.80;13.45;;;5.70;99.90;;;;;;4983124;28;20406;-85
2021/03/10 00:56:08;;;;;;;24.83;13.85;;;5.60;99.90;;;;;;5016336;28;20210;-84
2021/03/10 00:58:35;;;;;;;21.77;13.88;;;5.60;99.90;;;;;;5016091;28;20246;-83
2021/03/10 01:01:01;;;;;;;28.35;15.98;;;5.60;99.90;;;;;;5015270;28;20287;-84
2021/03/10 01:03:27;;;;;;;22.63;14.02;;;5.50;99.90;;;;;;5015767;28;20273;-84
2021/03/10 01:05:54;;;;;;;23.23;13.02;;;5.50;99.90;;;;;;5016043;28;20203;-84
2021/03/10 01:08:20;;;;;;;20.88;13.07;;;5.50;99.90;;;;;;5014711;28;20776;-83
2021/03/10 01:10:48;;;;;;;23.25;13.27;;;5.40;99.90;;;;;;5015863;28;20294;-84
2021/03/10 01:13:15;;;;;;;24.05;13.63;;;5.40;99.90;;;;;;5015777;28;20203;-84
2021/03/10 01:15:41;;;;;;;29.00;16.02;;;5.50;99.90;;;;;;5014538;28;20634;-84
2021/03/10 01:18:07;;;;;;;24.60;14.70;;;5.60;99.90;;;;;;5014491;28;20286;-83
2021/03/10 01:20:34;;;;;;;29.40;15.68;;;5.60;99.90;;;;;;5015496;28;20204;-84
2021/03/10 01:23:01;;;;;;;25.92;13.45;;;5.60;99.90;;;;;;5015316;28;20238;-84
2021/03/10 01:25:27;;;;;;;30.27;13.90;;;5.60;99.90;;;;;;5015392;28;20290;-84
2021/03/10 01:27:54;;;;;;;25.83;14.50;;;5.60;99.90;;;;;;5015793;28;20215;-83
2021/03/10 01:30:22;;;;;;;22.70;13.55;;;5.50;99.90;;;;;;5013964;28;20226;-83
2021/03/10 01:32:48;;;;;;;22.13;15.75;;;5.60;99.90;;;;;;4980740;28;20213;-84
2021/03/10 01:35:15;;;;;;;22.05;13.63;;;5.60;99.90;;;;;;5014954;28;20322;-84
2021/03/10 01:37:42;;;;;;;25.90;16.08;;;5.70;99.90;;;;;;5014189;28;20199;-84
2021/03/10 01:40:11;;;;;;;24.88;14.43;;;5.70;99.90;;;;;;4980983;28;20230;-84
2021/03/10 01:42:38;;;;;;;23.55;14.43;;;5.70;99.90;;;;;;5014492;28;20334;-84
2021/03/10 01:45:07;;;;;;;25.73;14.43;;;5.70;99.90;;;;;;5013021;28;20286;-84
2021/03/10 01:47:34;;;;;;;26.85;14.65;;;5.70;99.90;;;;;;5014615;28;20290;-84
2021/03/10 01:50:01;;;;;;;26.15;14.45;;;5.60;99.90;;;;;;5014281;28;20303;-84
2021/03/10 01:52:28;;;;;;;22.75;14.35;;;5.60;99.90;;;;;;5013858;28;20268;-83
2021/03/10 01:54:54;;;;;;;23.75;15.00;;;5.50;99.90;;;;;;5014805;28;20291;-85
2021/03/10 01:57:21;;;;;;;24.35;14.95;;;5.40;99.90;;;;;;5014571;28;20207;-84
2021/03/10 01:59:47;;;;;;;25.88;15.20;;;5.40;99.90;;;;;;5012681;28;20318;-84
2021/03/10 02:02:15;;;;;;;21.85;14.43;;;5.40;99.90;;;;;;5014633;28;20323;-84
2021/03/10 02:04:41;;;;;;;29.48;14.10;;;5.40;99.90;;;;;;5014337;28;20303;-84
2021/03/10 02:07:11;;;;;;;30.15;16.60;;;5.50;99.90;;;;;;5014382;28;20333;-84
2021/03/10 02:09:49;;;;;;;34.95;17.90;;;5.50;99.90;;;;;;5014348;28;20667;-83
2021/03/10 02:12:23;;;;;;;29.92;16.63;;;5.50;99.90;;;;;;5014354;28;20297;-84
2021/03/10 02:14:56;;;;;;;31.45;18.83;;;5.50;99.90;;;;;;5012969;28;21126;-84
2021/03/10 02:17:29;;;;;;;30.52;16.10;;;5.50;99.90;;;;;;5014372;28;20338;-84
2021/03/10 02:20:12;;;;;;;24.13;15.52;;;5.50;99.90;;;;;;5013123;28;20302;-85
2021/03/10 02:22:59;;;;;;;27.13;16.08;;;5.50;99.90;;;;;;5013676;28;20769;-84
2021/03/10 02:25:39;;;;;;;32.65;17.98;;;5.50;99.90;;;;;;5014038;28;20214;-84
2021/03/10 02:28:07;;;;;;;24.67;15.75;;;5.50;99.90;;;;;;5013968;28;20610;-84
2021/03/10 02:30:37;;;;;;;32.05;16.85;;;5.50;99.90;;;;;;5012667;28;20299;-84
2021/03/10 02:33:08;;;;;;;34.03;19.42;;;5.50;99.90;;;;;;5014223;28;20295;-84
2021/03/10 02:35:38;;;;;;;32.35;16.65;;;5.40;99.90;;;;;;5013166;28;20277;-84
2021/03/10 02:38:08;;;;;;;28.92;16.13;;;5.40;99.90;;;;;;5012148;28;20350;-84
2021/03/10 02:40:38;;;;;;;36.25;17.17;;;5.40;99.90;;;;;;5013750;28;20727;-84
2021/03/10 02:43:07;;;;;;;25.08;16.15;;;5.40;99.90;;;;;;5013549;28;20322;-84
2021/03/10 02:45:34;;;;;;;27.65;15.38;;;5.40;99.90;;;;;;5011403;28;20296;-84
2021/03/10 02:48:03;;;;;;;27.23;16.30;;;5.40;99.90;;;;;;5013401;28;20282;-84
2021/03/10 02:50:30;;;;;;;28.33;15.23;;;5.40;99.90;;;;;;5013390;28;20293;-84
2021/03/10 02:52:59;;;;;;;26.20;15.30;;;5.40;99.90;;;;;;5013192;28;20322;-85
2021/03/10 02:55:25;;;;;;;30.48;16.48;;;5.40;99.90;;;;;;5012451;28;20286;-84
2021/03/10 02:57:53;;;;;;;30.38;15.80;;;5.40;99.90;;;;;;5013335;28;20303;-84
2021/03/10 03:00:23;;;;;;;28.58;15.57;;;5.40;99.90;;;;;;5012214;28;20207;-84
2021/03/10 03:02:50;;;;;;;30.23;16.65;;;5.50;99.90;;;;;;5012799;28;20915;-83
2021/03/10 03:05:17;;;;;;;26.88;15.32;;;5.50;99.90;;;;;;5012798;28;20234;-83
2021/03/10 03:07:46;;;;;;;20.50;12.77;;;5.50;99.90;;;;;;5012696;28;20204;-83
2021/03/10 03:10:15;;;;;;;31.23;17.63;;;5.50;99.90;;;;;;5012836;28;20231;-83
2021/03/10 03:12:44;;;;;;;27.38;15.85;;;5.50;99.90;;;;;;5013358;28;20742;-84
2021/03/10 03:15:14;;;;;;;29.55;16.50;;;5.50;99.90;;;;;;5011221;28;20290;-84
2021/03/10 03:17:42;;;;;;;27.67;16.90;;;5.50;99.90;;;;;;5013033;28;20239;-84
2021/03/10 03:20:10;;;;;;;26.48;15.25;;;5.50;99.90;;;;;;5013011;28;20291;-84
2021/03/10 03:22:42;;;;;;;28.60;17.35;;;5.70;99.90;;;;;;5012877;28;20330;-84
2021/03/10 03:25:13;;;;;;;30.92;16.15;;;5.70;99.90;;;;;;5013254;28;20208;-84
2021/03/10 03:27:41;;;;;;;30.55;17.45;;;5.60;99.90;;;;;;5012845;28;20204;-84
2021/03/10 03:30:10;;;;;;;30.15;16.92;;;5.60;99.90;;;;;;5011809;28;20210;-84
2021/03/10 03:32:37;;;;;;;28.63;16.83;;;5.50;99.90;;;;;;5013099;28;20214;-84
2021/03/10 03:35:06;;;;;;;30.35;16.55;;;5.50;99.90;;;;;;5012511;28;20603;-84
2021/03/10 03:37:33;;;;;;;33.53;18.25;;;5.50;99.90;;;;;;5012823;28;20294;-84
2021/03/10 03:40:00;;;;;;;34.55;17.15;;;5.60;99.90;;;;;;5012044;28;20203;-84
2021/03/10 03:42:27;;;;;;;31.88;17.63;;;5.50;99.90;;;;;;5012846;28;20231;-84
2021/03/10 03:44:53;;;;;;;36.90;18.80;;;5.40;99.90;;;;;;5011660;28;20242;-84
2021/03/10 03:47:20;;;;;;;36.13;19.33;;;5.50;99.90;;;;;;5012652;28;20278;-85
2021/03/10 03:49:47;;;;;;;32.33;18.48;;;5.40;99.90;;;;;;5011829;28;20298;-84
2021/03/10 03:52:15;;;;;;;34.45;18.55;;;5.40;99.90;;;;;;5012371;28;20213;-85
2021/03/10 03:54:42;;;;;;;35.70;18.10;;;5.40;99.90;;;;;;5012773;28;20286;-84
2021/03/10 03:57:09;;;;;;;27.33;17.10;;;5.40;99.90;;;;;;5012562;28;20249;-84
2021/03/10 03:59:35;;;;;;;35.10;17.15;;;5.50;99.90;;;;;;5011007;28;20242;-84
2021/03/10 04:02:02;;;;;;;30.48;17.90;;;5.40;99.90;;;;;;5012362;28;20215;-84
2021/03/10 04:04:28;;;;;;;29.10;17.02;;;5.40;99.90;;;;;;5012362;28;20294;-85
2021/03/10 04:06:55;;;;;;;23.65;15.85;;;5.40;99.90;;;;;;5012247;28;20257;-84
2021/03/10 04:09:22;;;;;;;23.95;17.02;;;5.40;99.90;;;;;;4992865;28;20211;-84
2021/03/10 04:11:49;;;;;;;32.60;18.85;;;5.40;99.90;;;;;;4992978;28;20731;-84
2021/03/10 04:14:17;;;;;;;26.60;16.33;;;5.30;99.90;;;;;;4992963;28;20299;-84
2021/03/10 04:16:45;;;;;;;27.40;16.75;;;5.30;99.90;;;;;;4991375;28;20204;-84
2021/03/10 04:19:11;;;;;;;25.17;15.80;;;5.30;99.90;;;;;;5001622;28;20626;-84
2021/03/10 04:21:38;;;;;;;25.60;16.67;;;5.30;99.90;;;;;;5013027;28;20298;-84
2021/03/10 04:24:06;;;;;;;27.60;15.35;;;5.30;99.90;;;;;;5016191;28;20310;-84
2021/03/10 04:26:34;;;;;;;27.73;15.63;;;5.40;99.90;;;;;;5016214;28;20294;-84
2021/03/10 04:29:01;;;;;;;25.52;15.98;;;5.30;99.90;;;;;;5016204;28;20238;-84
2021/03/10 04:31:27;;;;;;;26.13;16.83;;;5.30;99.90;;;;;;5014913;28;20207;-84
2021/03/10 04:33:53;;;;;;;30.25;17.50;;;5.30;99.90;;;;;;5015745;28;20554;-85
2021/03/10 04:36:20;;;;;;;26.25;17.08;;;5.30;99.90;;;;;;5015654;28;20270;-84
2021/03/10 04:38:47;;;;;;;26.10;17.27;;;5.30;99.90;;;;;;5015117;28;20239;-84
2021/03/10 04:41:13;;;;;;;30.40;16.65;;;5.30;99.90;;;;;;5015811;28;20200;-84
2021/03/10 04:43:40;;;;;;;31.65;16.92;;;5.20;99.90;;;;;;5016123;28;20296;-84
2021/03/10 04:46:06;;;;;;;27.98;15.88;;;5.20;99.90;;;;;;5027477;28;20234;-84
2021/03/10 04:48:33;;;;;;;27.27;17.42;;;5.20;99.90;;;;;;5038937;28;20198;-83
2021/03/10 04:50:59;;;;;;;31.90;18.80;;;5.20;99.90;;;;;;5026733;28;20306;-84
2021/03/10 04:53:26;;;;;;;27.33;17.25;;;5.20;99.90;;;;;;5018016;28;20211;-84
2021/03/10 04:55:52;;;;;;;32.35;18.73;;;5.10;99.90;;;;;;5016305;28;20295;-85
2021/03/10 04:58:19;;;;;;;35.08;17.20;;;5.10;99.90;;;;;;5032130;28;20249;-84
2021/03/10 05:00:46;;;;;;;33.95;19.52;;;5.10;99.90;;;;;;5039297;28;20207;-84
2021/03/10 05:03:12;;;;;;;24.63;16.00;;;5.10;99.90;;;;;;5021480;28;20223;-84
2021/03/10 05:05:39;;;;;;;27.13;16.92;;;5.10;99.90;;;;;;5018021;28;20294;-84
2021/03/10 05:08:05;;;;;;;37.80;19.10;;;5.10;99.90;;;;;;5016198;28;20705;-83
2021/03/10 05:10:32;;;;;;;35.92;19.40;;;5.10;99.90;;;;;;5015798;28;20294;-83
2021/03/10 05:12:58;;;;;;;30.40;17.25;;;5.10;99.90;;;;;;5015239;28;20294;-84
2021/03/10 05:15:25;;;;;;;27.85;16.80;;;5.10;99.90;;;;;;5014881;28;20298;-84
2021/03/10 05:17:52;;;;;;;33.10;17.30;;;5.10;99.90;;;;;;5015203;28;20200;-83
2021/03/10 05:20:18;;;;;;;26.83;16.85;;;5.10;99.90;;;;;;5014166;28;20291;-84
2021/03/10 05:22:45;;;;;;;30.52;19.00;;;5.10;99.90;;;;;;5015062;28;20327;-83
2021/03/10 05:25:13;;;;;;;26.73;16.65;;;5.10;99.90;;;;;;5015058;28;20290;-83
2021/03/10 05:27:39;;;;;;;26.52;15.73;;;5.10;99.90;;;;;;5015006;28;20291;-83
2021/03/10 05:30:09;;;;;;;28.85;17.17;;;5.10;99.90;;;;;;5013818;28;20648;-83
2021/03/10 05:32:35;;;;;;;27.58;16.60;;;5.00;99.90;;;;;;5014721;28;20636;-83
2021/03/10 05:35:03;;;;;;;36.00;21.38;;;5.00;99.90;;;;;;5014604;28;20310;-83
2021/03/10 05:37:30;;;;;;;29.00;17.20;;;5.00;99.90;;;;;;5014926;28;20234;-83
2021/03/10 05:39:56;;;;;;;34.83;19.42;;;5.00;99.90;;;;;;5014133;28;20609;-83
2021/03/10 05:42:22;;;;;;;33.22;17.65;;;5.10;99.90;;;;;;5014943;28;20313;-83
2021/03/10 05:44:50;;;;;;;31.02;17.88;;;5.10;99.90;;;;;;5013430;28;20642;-83
2021/03/10 05:47:18;;;;;;;38.13;20.85;;;5.10;99.90;;;;;;5014706;28;20203;-83
2021/03/10 05:49:45;;;;;;;26.00;16.35;;;5.20;99.90;;;;;;5013945;28;20239;-85
2021/03/10 05:52:14;;;;;;;35.78;19.45;;;5.10;99.90;;;;;;5014807;28;20342;-84
2021/03/10 05:54:43;;;;;;;26.15;16.00;;;5.20;99.90;;;;;;5014369;28;20235;-84
2021/03/10 05:57:09;;;;;;;32.97;16.92;;;5.20;99.90;;;;;;5014826;28;20204;-85
2021/03/10 05:59:36;;;;;;;34.95;18.45;;;5.20;99.90;;;;;;5013099;28;20234;-84
2021/03/10 06:02:03;;;;;;;37.15;20.33;;;5.20;99.90;;;;;;5014445;28;20335;-84
2021/03/10 06:04:40;;;;;;;32.17;19.23;;;5.20;99.90;;;;;;5014449;28;20215;-84
2021/03/10 06:07:17;;;;;;;34.40;19.35;;;5.20;99.90;;;;;;5014450;28;20291;-84
2021/03/10 06:09:55;;;;;;;31.92;20.35;;;5.20;99.90;;;;;;5013919;28;20254;-84
2021/03/10 06:12:21;;;;;;;33.72;16.52;;;5.20;99.90;;;;;;5014321;28;20295;-83
2021/03/10 06:14:58;;;;;;;28.85;18.75;;;5.30;99.90;;;;;;5012873;28;20296;-84
2021/03/10 06:17:25;;;;;;;29.50;17.98;;;5.20;99.90;;;;;;5014275;28;20286;-83
2021/03/10 06:19:51;;;;;;;29.58;17.92;;;5.30;99.90;;;;;;5013252;28;20290;-83
2021/03/10 06:22:18;;;;;;;29.25;16.55;;;5.30;99.90;;;;;;5014420;28;20204;-83
2021/03/10 06:24:49;;;;;;;30.45;18.70;;;5.40;99.90;;;;;;5013855;28;20297;-83
2021/03/10 06:27:21;;;;;;;28.60;17.65;;;5.40;99.90;;;;;;5013662;28;20207;-83
2021/03/10 06:29:55;;;;;;;26.70;16.15;;;5.40;99.90;;;;;;5012604;28;20568;-83
2021/03/10 06:32:21;;;;;;;35.08;17.95;;;5.40;99.90;;;;;;5013784;28;20297;-83
2021/03/10 06:34:49;;;;;;;28.02;16.95;;;5.40;99.90;;;;;;5013605;28;20279;-83
2021/03/10 06:37:25;;;;;;;35.75;20.02;;;5.50;99.90;;;;;;5013799;28;20208;-83
2021/03/10 06:39:53;;;;;;;32.08;17.48;;;5.50;99.90;;;;;;5013302;28;20202;-83
2021/03/10 06:42:19;;;;;;;28.92;16.88;;;5.50;99.90;;;;;;5013871;28;20298;-83
2021/03/10 06:44:50;;;;;;;31.63;18.45;;;5.50;99.90;;;;;;5011398;28;20207;-82
2021/03/10 06:47:17;;;;;;;26.73;18.00;;;5.50;99.90;;;;;;5013649;28;20208;-82
2021/03/10 06:49:52;;;;;;;32.33;20.27;;;5.60;99.90;;;;;;5012660;28;20239;-84
2021/03/10 06:52:19;;;;;;;31.73;18.15;;;5.60;99.90;;;;;;5013563;28;20211;-83
2021/03/10 06:54:55;;;;;;;37.92;20.77;;;5.70;99.90;;;;;;5013519;28;20320;-83
2021/03/10 06:57:22;;;;;;;32.78;19.02;;;5.70;99.90;;;;;;5013607;28;20210;-83
2021/03/10 06:59:50;;;;;;;29.70;17.40;;;5.80;99.90;;;;;;5011117;28;20657;-83
2021/03/10 07:02:18;;;;;;;39.97;18.90;;;5.80;99.90;;;;;;5013109;28;20203;-83
2021/03/10 07:04:46;;;;;;;36.45;19.88;;;5.80;99.90;;;;;;5013228;28;20279;-83
2021/03/10 07:07:13;;;;;;;41.00;20.00;;;5.90;99.90;;;;;;5012967;28;20257;-84
2021/03/10 07:09:39;;;;;;;33.13;18.10;;;5.90;99.90;;;;;;5013322;28;20239;-84
2021/03/10 07:12:09;;;;;;;28.35;17.73;;;5.90;99.90;;;;;;5013373;28;20238;-84
2021/03/10 07:14:36;;;;;;;30.05;18.40;;;6.00;99.90;;;;;;5012217;28;20208;-84
2021/03/10 07:17:05;;;;;;;33.30;18.97;;;6.00;99.90;;;;;;5013289;28;20246;-83
2021/03/10 07:19:31;;;;;;;29.60;18.30;;;6.20;99.90;;;;;;5011976;28;20545;-83
2021/03/10 07:22:01;;;;;;;27.55;17.08;;;6.30;99.90;;;;;;5019872;28;20203;-83
2021/03/10 07:24:34;;;;;;;35.23;18.50;;;6.50;99.90;;;;;;5013868;28;20699;-84
2021/03/10 07:27:01;;;;;;;37.57;19.63;;;6.60;99.90;;;;;;5013231;28;21007;-84
2021/03/10 07:29:34;;;;;;;31.60;17.47;;;6.70;99.90;;;;;;5013024;28;20546;-82
2021/03/10 07:32:01;;;;;;;31.17;18.53;;;6.80;99.90;;;;;;5011464;28;20462;-83
2021/03/10 07:34:28;;;;;;;34.20;19.07;;;6.80;99.90;;;;;;5012273;28;21088;-83
2021/03/10 07:36:55;;;;;;;27.53;17.20;;;7.00;99.90;;;;;;5012663;28;20890;-83
2021/03/10 07:39:23;;;;;;;32.93;19.03;;;7.00;99.90;;;;;;5012885;28;20592;-83
2021/03/10 07:41:50;;;;;;;28.47;18.53;;;6.90;99.90;;;;;;5012146;28;20561;-83
2021/03/10 07:44:20;;;;;;;29.27;18.60;;;6.80;99.90;;;;;;5012930;28;20909;-83
2021/03/10 07:46:49;;;;;;;30.53;17.20;;;6.70;99.90;;;;;;5011989;28;20538;-84
2021/03/10 07:49:18;;;;;;;29.87;18.00;;;6.80;99.90;;;;;;5013885;28;20461;-85
2021/03/10 07:51:45;;;;;;;28.73;18.80;;;6.90;99.90;;;;;;5012805;28;20537;-84
2021/03/10 07:54:24;;;;;;;27.47;17.33;;;7.10;99.90;;;;;;5013137;28;20549;-83
2021/03/10 07:57:04;;;;;;;30.70;18.40;;;7.20;99.90;;;;;;5015325;28;20457;-84
2021/03/10 07:59:31;;;;;;;31.00;19.40;;;7.30;99.90;;;;;;5016806;28;20450;-83
2021/03/10 08:02:02;;;;;;;32.20;17.57;;;7.40;99.90;;;;;;5015917;28;20481;-83
2021/03/10 08:04:29;;;;;;;25.77;18.10;;;7.60;99.90;;;;;;5016363;28;20494;-84
2021/03/10 08:06:55;;;;;;;29.37;19.30;;;7.70;99.90;;;;;;5016783;28;20457;-83
2021/03/10 08:09:23;;;;;;;29.50;16.77;;;7.70;99.90;;;;;;5016687;28;20549;-82
2021/03/10 08:12:04;;;;;;;29.57;18.77;;;7.50;99.90;;;;;;5016658;28;20534;-86
2021/03/10 08:14:35;;;;;;;30.07;18.27;;;7.70;99.90;;;;;;5017652;28;20533;-88
2021/03/10 08:17:03;;;;;;;30.10;16.80;;;7.60;99.90;;;;;;5016506;28;20486;-85
2021/03/10 08:19:30;;;;;;;35.47;18.20;;;7.80;99.90;;;;;;5015490;28;20519;-81
2021/03/10 08:21:58;;;;;;;25.90;18.13;;;8.20;99.90;;;;;;5016647;28;20472;-84
2021/03/10 08:24:26;;;;;;;31.87;16.83;;;8.10;99.90;;;;;;5016290;28;21030;-84
2021/03/10 08:26:55;;;;;;;23.27;16.77;;;8.10;99.90;;;;;;5016402;28;20496;-84
2021/03/10 08:29:22;;;;;;;29.90;17.00;;;7.90;99.90;;;;;;5016340;28;21049;-84
2021/03/10 08:31:50;;;;;;;30.60;19.33;;;8.00;99.90;;;;;;5015597;28;20505;-84
2021/03/10 08:34:39;;;;;;;29.30;16.93;;;8.20;99.90;;;;;;5016834;28;20529;-85
2021/03/10 08:37:08;;;;;;;24.90;17.60;;;8.20;99.90;;;;;;5016393;28;20490;-85
2021/03/10 08:39:41;;;;;;;27.00;17.13;;;8.40;99.90;;;;;;5018370;28;20544;-85
2021/03/10 08:42:09;;;;;;;31.87;18.27;;;8.30;99.90;;;;;;5016924;28;20466;-84
2021/03/10 08:44:39;;;;;;;30.40;19.37;;;8.20;99.90;;;;;;5016537;28;20937;-85
2021/03/10 08:47:12;;;;;;;28.63;16.73;;;7.90;99.90;;;;;;5016475;28;20496;-83
2021/03/10 08:49:39;;;;;;;24.20;16.03;;;7.90;99.90;;;;;;5015060;28;20470;-85
2021/03/10 08:52:08;;;;;;;30.40;17.40;;;7.90;99.90;;;;;;5017619;28;20890;-89
2021/03/10 08:54:52;;;;;;;27.40;16.47;;;7.80;99.90;;;;;;5017363;28;20466;-85
2021/03/10 08:57:19;;;;;;;30.00;18.10;;;8.00;99.90;;;;;;5017317;28;20489;-84
2021/03/10 08:59:46;;;;;;;22.27;16.13;;;7.80;99.90;;;;;;5021357;28;20430;-83
2021/03/10 09:02:13;;;;;;;27.77;16.13;;;7.90;99.90;;;;;;5037516;28;20446;-85
2021/03/10 09:04:47;;;;;;;26.57;16.67;;;7.90;99.90;;;;;;5026706;28;20580;-83
2021/03/10 09:07:17;;;;;;;33.00;17.77;;;8.10;99.90;;;;;;5019674;28;20942;-84
2021/03/10 09:09:44;;;;;;;26.30;16.93;;;8.40;99.90;;;;;;5038561;28;20585;-84
2021/03/10 09:12:12;;;;;;;29.40;17.07;;;8.40;99.90;;;;;;5039213;28;20439;-88
2021/03/10 09:14:38;;;;;;;30.03;19.17;;;8.60;99.90;;;;;;5036812;28;20459;-85
2021/03/10 09:17:05;;;;;;;22.57;14.90;;;9.00;99.90;;;;;;5020548;28;20455;-83
2021/03/10 09:19:36;;;;;;;28.60;13.87;;;8.60;99.90;;;;;;5014970;28;20498;-82
2021/03/10 09:22:22;;;;;;;24.20;16.03;;;9.10;99.90;;;;;;5015358;28;20451;-80
2021/03/10 09:24:53;;;;;;;29.43;17.10;;;9.30;99.90;;;;;;5015236;28;20544;-80
2021/03/10 09:27:25;;;;;;;28.03;16.40;;;9.20;99.90;;;;;;5015094;28;20949;-83
2021/03/10 09:29:53;;;;;;;28.00;15.67;;;8.80;99.90;;;;;;5014427;28;20454;-87
2021/03/10 09:32:20;;;;;;;28.37;17.40;;;9.00;99.90;;;;;;5015313;28;20506;-86
2021/03/10 09:34:48;;;;;;;23.63;15.10;;;8.90;99.90;;;;;;5015224;28;20486;-92
2021/03/10 09:37:15;;;;;;;26.47;15.93;;;9.20;99.90;;;;;;5014761;28;20866;-83
2021/03/10 09:39:46;;;;;;;23.77;14.87;;;9.20;99.90;;;;;;5014951;28;20446;-83
2021/03/10 09:42:13;;;;;;;23.33;14.77;;;9.20;99.90;;;;;;5014815;28;20561;-83
2021/03/10 09:44:45;;;;;;;22.73;15.00;;;9.40;99.90;;;;;;5014540;28;20646;-83
2021/03/10 09:47:17;;;;;;;28.50;13.93;;;9.30;99.90;;;;;;5015148;28;21025;-85
2021/03/10 09:49:52;;;;;;;21.93;13.33;;;9.40;99.90;;;;;;5014163;28;21047;-85
2021/03/10 09:52:19;;;;;;;25.03;15.33;;;9.00;99.90;;;;;;5014877;28;20520;-85
2021/03/10 09:54:54;;;;;;;24.73;14.93;;;8.90;99.90;;;;;;5015522;28;20470;-87
2021/03/10 09:57:25;;;;;;;23.17;13.43;;;9.50;99.80;;;;;;5007074;28;20474;-88
2021/03/10 09:59:55;;;;;;;29.60;14.90;;;9.70;98.70;;;;;;4994525;28;20853;-93
2021/03/10 10:02:22;;;;;;;20.03;12.80;;;10.00;97.00;;;;;;4995891;28;20459;-87
2021/03/10 10:04:59;;;;;;;17.53;12.90;;;9.90;98.00;;;;;;4995850;28;20926;-88
2021/03/10 10:07:30;;;;;;;21.77;11.40;;;10.00;97.80;;;;;;4995359;28;20447;-89
2021/03/10 10:09:58;;;;;;;18.73;13.93;;;9.60;98.00;;;;;;4995907;28;20931;-90
2021/03/10 10:12:25;;;;;;;22.67;13.93;;;9.50;98.50;;;;;;4996475;28;20463;-91
2021/03/10 10:14:54;;;;;;;23.00;13.63;;;9.50;98.40;;;;;;5008212;28;20447;-88
2021/03/10 10:17:21;;;;;;;18.57;12.20;;;9.60;97.20;;;;;;5003386;28;20439;-88
2021/03/10 10:19:47;;;;;;;20.57;12.47;;;9.60;97.30;;;;;;5006647;28;20529;-87
2021/03/10 10:22:14;;;;;;;22.20;11.83;;;9.50;97.20;;;;;;5016509;28;20969;-91
2021/03/10 10:24:40;;;;;;;25.13;13.80;;;9.50;97.60;;;;;;5015674;28;20534;-88
2021/03/10 10:27:08;;;;;;;23.73;12.80;;;9.60;97.60;;;;;;5015454;28;20513;-87
2021/03/10 10:29:34;;;;;;;19.80;11.33;;;9.50;96.80;;;;;;5014163;28;20589;-90
2021/03/10 10:32:01;;;;;;;16.10;10.03;;;9.70;96.90;;;;;;5014917;28;20538;-88
2021/03/10 10:34:28;;;;;;;16.43;10.60;;;9.60;96.30;;;;;;5015324;28;20541;-88
2021/03/10 10:36:54;;;;;;;19.73;11.07;;;9.70;95.30;;;;;;5014888;28;20463;-86
2021/03/10 10:39:21;;;;;;;15.17;9.20;;;;;;;;;;5016571;28;20490;-91
2021/03/10 10:41:47;;;;;;;14.63;9.17;;;9.80;95.00;;;;;;5014615;28;20582;-91
2021/03/10 10:44:14;;;;;;;11.50;7.80;;;9.80;94.80;;;;;;5015208;28;20521;-85
2021/03/10 10:46:41;;;;;;;10.60;7.10;;;9.80;92.50;;;;;;5012349;28;20892;-88
2021/03/10 10:49:07;;;;;;;12.23;7.50;;;9.60;92.90;;;;;;5015364;28;20533;-87
2021/03/10 10:51:33;;;;;;;10.87;6.63;;;9.80;92.60;;;;;;5014697;28;20470;-85
2021/03/10 10:54:00;;;;;;;11.17;8.57;;;10.00;92.00;;;;;;5014202;28;20965;-86
2021/03/10 10:56:27;;;;;;;12.93;7.93;;;9.80;92.20;;;;;;5014710;28;20869;-86
2021/03/10 10:58:53;;;;;;;10.37;7.53;;;10.00;91.90;;;;;;5014347;28;20908;-90
2021/03/10 11:01:20;;;;;;;10.40;7.67;;;10.00;91.20;;;;;;5013300;28;20533;-90
2021/03/10 11:03:47;;;;;;;11.43;6.93;;;10.40;91.20;;;;;;5014162;28;20585;-93
2021/03/10 11:06:13;;;;;;;12.53;8.67;;;10.70;91.00;;;;;;5014829;28;20454;-86
2021/03/10 11:08:39;;;;;;;8.87;6.17;;;10.70;90.70;;;;;;5014330;28;20519;-88
2021/03/10 11:11:06;;;;;;;10.97;7.20;;;10.70;88.60;;;;;;5014272;28;20454;-89
2021/03/10 11:13:32;;;;;;;12.70;7.97;;;10.50;88.10;;;;;;5013786;28;20459;-85
2021/03/10 11:15:59;;;;;;;9.93;5.73;;;10.40;88.50;;;;;;5012529;28;20489;-89
2021/03/10 11:18:26;;;;;;;8.93;6.53;;;10.30;87.50;;;;;;5012690;28;20489;-81
2021/03/10 11:20:52;;;;;;;11.80;8.37;;;10.20;88.80;;;;;;5013226;28;20542;-80
2021/03/10 11:23:19;;;;;;;11.37;7.73;;;10.20;89.20;;;;;;5013236;28;20490;-80
2021/03/10 11:25:45;;;;;;;11.93;7.30;;;10.10;89.90;;;;;;5013302;28;20537;-83
2021/03/10 11:28:13;;;;;;;9.03;6.67;;;10.40;90.20;;;;;;5014474;28;20458;-90
2021/03/10 11:30:41;;;;;;;12.13;6.60;;;10.60;88.70;;;;;;5014345;28;20830;-89
2021/03/10 11:33:08;;;;;;;14.90;9.10;;;10.20;86.70;;;;;;5015298;28;20474;-85
2021/03/10 11:35:35;;;;;;;11.40;6.53;;;10.20;88.10;;;;;;5013796;28;20474;-82
2021/03/10 11:38:04;;;;;;;7.60;6.83;;;9.80;88.80;;;;;;5015257;28;20455;-88
2021/03/10 11:40:32;;;;;;;9.13;5.80;;;10.10;89.40;;;;;;5015505;28;20458;-90
2021/03/10 11:42:59;;;;;;;12.57;6.93;;;10.10;87.10;;;;;;5012554;28;20636;-88
2021/03/10 11:45:25;;;;;;;9.07;6.27;;;10.40;85.60;;;;;;5013145;28;20482;-88
2021/03/10 11:47:51;;;;;;;7.07;5.00;;;10.60;85.50;;;;;;5013601;28;20461;-85
2021/03/10 11:50:18;;;;;;;7.50;5.47;;;10.40;84.30;;;;;;5012551;28;20553;-88
2021/03/10 11:52:45;;;;;;;7.67;6.00;;;10.50;84.50;;;;;;5013163;28;20486;-88
2021/03/10 11:55:13;;;;;;;10.90;6.93;;;10.40;84.60;;;;;;5012853;28;20546;-90
2021/03/10 11:57:39;;;;;;;10.90;6.97;;;11.00;85.90;;;;;;5013187;28;20457;-89
2021/03/10 12:00:07;;;;;;;9.30;6.37;;;11.10;84.80;;;;;;5012215;28;20546;-86
2021/03/10 12:02:34;;;;;;;7.60;5.37;;;11.40;83.50;;;;;;5012184;28;20554;-85
2021/03/10 12:05:00;;;;;;;11.10;5.93;;;11.40;80.80;;;;;;5013014;28;20502;-88
2021/03/10 12:07:27;;;;;;;8.73;6.03;;;10.50;82.30;;;;;;5012628;28;20495;-87
2021/03/10 12:09:54;;;;;;;9.17;5.93;;;10.70;82.00;;;;;;5013336;28;20451;-88
2021/03/10 12:12:21;;;;;;;8.60;5.40;;;10.80;81.80;;;;;;5013633;28;20561;-88
2021/03/10 12:14:47;;;;;;;10.80;6.30;;;10.70;82.80;;;;;;5013108;28;20463;-87
2021/03/10 12:17:14;;;;;;;5.10;4.60;;;10.70;82.70;;;;;;5014268;28;20482;-88
2021/03/10 12:19:40;;;;;;;6.87;5.00;;;10.80;82.20;;;;;;5006435;28;20503;-90
2021/03/10 12:22:07;;;;;;;9.20;6.30;;;10.60;82.00;;;;;;4993302;28;20494;-86
2021/03/10 12:24:35;;;;;;;7.10;5.63;;;10.50;82.50;;;;;;4993922;28;20570;-90
2021/03/10 12:27:06;;;;;;;7.40;5.27;;;11.20;84.50;;;;;;4994012;28;20630;-88
2021/03/10 12:29:33;;;;;;;16.60;6.30;;;11.00;82.80;;;;;;4992906;28;20939;-88
2021/03/10 12:31:59;;;;;;;9.00;6.27;;;11.00;82.50;;;;;;4992391;28;20562;-87
2021/03/10 12:34:26;;;;;;;7.90;5.87;;;10.70;82.40;;;;;;4993190;28;20459;-90
2021/03/10 12:36:52;;;;;;;9.50;5.70;;;10.80;83.30;;;;;;4993942;28;20545;-92
2021/03/10 12:39:18;;;;;;;6.87;5.27;;;10.60;83.20;;;;;;4993975;28;20451;-92
2021/03/10 12:41:45;;;;;;;10.23;6.40;;;10.70;83.20;;;;;;4993697;28;20447;-92
2021/03/10 12:44:12;;;;;;;14.17;7.80;;;10.60;82.70;;;;;;4995517;28;20509;-93